createdAt,value
2018-10-11T00:00:30.516Z,18.47
2018-10-11T00:02:59.176Z,19.57
2018-10-11T00:05:27.664Z,20.40
2018-10-11T00:07:56.549Z,18.30
2018-10-11T00:10:25.277Z,20.57
2018-10-11T00:12:53.719Z,17.60
2018-10-11T00:15:22.919Z,18.50
2018-10-11T00:17:56.045Z,22.13
2018-10-11T00:20:24.910Z,18.83
2018-10-11T00:22:53.877Z,18.80
2018-10-11T00:25:22.537Z,21.57
2018-10-11T00:27:51.303Z,20.03
2018-10-11T00:30:22.162Z,18.27
2018-10-11T00:32:50.862Z,18.63
2018-10-11T00:35:19.329Z,19.80
2018-10-11T00:37:48.214Z,18.90
2018-10-11T00:40:16.950Z,19.80
2018-10-11T00:42:45.644Z,20.40
2018-10-11T00:45:14.300Z,19.90
2018-10-11T00:47:42.943Z,19.87
2018-10-11T00:50:11.555Z,20.70
2018-10-11T00:52:40.206Z,20.30
2018-10-11T00:55:09.810Z,20.97
2018-10-11T00:57:38.935Z,21.63
2018-10-11T01:00:08.369Z,19.33
2018-10-11T01:02:37.322Z,21.47
2018-10-11T01:05:06.635Z,20.27
2018-10-11T01:07:35.325Z,20.17
2018-10-11T01:10:04.460Z,20.33
2018-10-11T01:12:33.836Z,19.17
2018-10-11T01:15:02.931Z,22.70
2018-10-11T01:17:32.020Z,20.93
2018-10-11T01:20:01.793Z,22.27
2018-10-11T01:22:30.829Z,21.13
2018-10-11T01:25:00.090Z,20.23
2018-10-11T01:27:28.616Z,21.60
2018-10-11T01:29:58.030Z,20.87
2018-10-11T01:32:26.791Z,22.63
2018-10-11T01:34:55.390Z,20.50
2018-10-11T01:37:25.747Z,22.40
2018-10-11T01:39:54.507Z,23.03
2018-10-11T01:42:23.136Z,20.57
2018-10-11T01:44:51.651Z,22.30
2018-10-11T01:47:20.315Z,20.90
2018-10-11T01:49:49.025Z,22.03
2018-10-11T01:52:17.759Z,20.10
2018-10-11T01:54:46.511Z,21.00
2018-10-11T01:57:15.152Z,22.20
2018-10-11T01:59:43.824Z,23.63
2018-10-11T02:02:12.494Z,22.03
2018-10-11T02:04:41.182Z,22.23
2018-10-11T02:07:09.844Z,22.07
2018-10-11T02:09:39.048Z,22.53
2018-10-11T02:12:07.888Z,23.93
2018-10-11T02:14:36.519Z,20.90
2018-10-11T02:17:10.273Z,22.73
2018-10-11T02:19:38.925Z,26.20
2018-10-11T02:22:08.453Z,21.40
2018-10-11T02:24:37.054Z,20.90
2018-10-11T02:27:05.588Z,21.87
2018-10-11T02:29:34.199Z,23.37
2018-10-11T02:32:02.856Z,21.33
2018-10-11T02:34:31.412Z,21.13
2018-10-11T02:37:00.779Z,22.07
2018-10-11T02:39:29.233Z,22.57
2018-10-11T02:41:57.636Z,21.50
2018-10-11T02:44:26.104Z,23.07
2018-10-11T02:46:54.549Z,23.03
2018-10-11T02:49:22.911Z,22.87
2018-10-11T02:51:51.554Z,22.20
2018-10-11T02:54:19.926Z,22.23
2018-10-11T02:56:48.336Z,21.30
2018-10-11T02:59:30.907Z,21.93
2018-10-11T03:02:03.030Z,21.67
2018-10-11T03:04:32.335Z,22.73
2018-10-11T03:07:01.057Z,24.43
2018-10-11T03:09:30.923Z,24.10
2018-10-11T03:11:59.690Z,22.00
2018-10-11T03:14:28.300Z,22.07
2018-10-11T03:16:56.925Z,23.07
2018-10-11T03:19:25.995Z,21.70
2018-10-11T03:21:54.991Z,25.43
2018-10-11T03:24:24.619Z,22.63
2018-10-11T03:26:59.669Z,24.33
2018-10-11T03:29:33.329Z,24.37
2018-10-11T03:32:02.192Z,23.23
2018-10-11T03:34:30.780Z,21.37
2018-10-11T03:36:59.989Z,22.87
2018-10-11T03:39:29.239Z,23.17
2018-10-11T03:41:58.791Z,22.23
2018-10-11T03:44:28.013Z,24.23
2018-10-11T03:46:56.461Z,24.80
2018-10-11T03:49:26.385Z,23.77
2018-10-11T03:51:54.799Z,24.20
2018-10-11T03:54:23.281Z,23.17
2018-10-11T03:56:51.910Z,26.30
2018-10-11T03:59:20.306Z,27.20
2018-10-11T04:01:48.745Z,24.20
2018-10-11T04:04:17.286Z,22.77
2018-10-11T04:06:45.702Z,28.27
2018-10-11T04:09:14.071Z,24.50
2018-10-11T04:11:42.437Z,25.57
2018-10-11T04:14:10.964Z,24.07
2018-10-11T04:16:39.319Z,24.60
2018-10-11T04:19:07.994Z,24.63
2018-10-11T04:21:36.413Z,24.93
2018-10-11T04:24:04.844Z,23.60
2018-10-11T04:26:33.305Z,25.87
2018-10-11T04:29:01.846Z,27.40
2018-10-11T04:31:30.265Z,26.50
2018-10-11T04:33:58.659Z,25.73
2018-10-11T04:36:27.093Z,25.63
2018-10-11T04:38:55.505Z,26.00
2018-10-11T04:41:23.936Z,25.90
2018-10-11T04:43:52.385Z,24.50
2018-10-11T04:46:20.960Z,25.73
2018-10-11T04:48:49.411Z,24.30
2018-10-11T04:51:18.065Z,24.53
2018-10-11T04:53:50.772Z,23.60
2018-10-11T04:56:19.454Z,24.50
2018-10-11T04:58:47.925Z,25.93
2018-10-11T05:01:16.402Z,26.63
2018-10-11T05:03:44.786Z,25.23
2018-10-11T05:06:13.357Z,26.03
2018-10-11T05:08:41.888Z,30.00
2018-10-11T05:11:10.476Z,25.37
2018-10-11T05:13:44.391Z,26.47
2018-10-11T05:16:13.491Z,25.40
2018-10-11T05:18:43.666Z,26.03
2018-10-11T05:21:12.216Z,28.10
2018-10-11T05:23:41.431Z,26.33
2018-10-11T05:26:09.977Z,26.67
2018-10-11T05:28:38.338Z,26.23
2018-10-11T05:31:06.844Z,25.27
2018-10-11T05:33:36.617Z,25.40
2018-10-11T05:36:05.267Z,26.20
2018-10-11T05:38:33.660Z,28.63
2018-10-11T05:41:02.118Z,28.87
2018-10-11T05:43:30.720Z,27.70
2018-10-11T05:46:00.998Z,25.40
2018-10-11T05:48:31.107Z,28.80
2018-10-11T05:51:00.408Z,28.03
2018-10-11T05:53:29.146Z,30.90
2018-10-11T05:55:58.525Z,27.23
2018-10-11T05:58:27.622Z,26.90
2018-10-11T06:00:56.525Z,28.17
2018-10-11T06:03:25.094Z,27.10
2018-10-11T06:05:53.533Z,27.50
2018-10-11T06:08:22.013Z,29.10
2018-10-11T06:10:51.456Z,28.40
2018-10-11T06:13:20.103Z,28.77
2018-10-11T06:15:48.827Z,27.83
2018-10-11T06:18:17.285Z,30.43
2018-10-11T06:20:46.549Z,29.77
2018-10-11T06:23:14.979Z,31.27
2018-10-11T06:25:43.475Z,34.90
2018-10-11T06:28:11.921Z,34.40
2018-10-11T06:30:40.515Z,32.43
2018-10-11T06:33:08.973Z,31.83
2018-10-11T06:35:38.417Z,32.73
2018-10-11T06:38:07.101Z,28.40
2018-10-11T06:40:37.663Z,30.53
2018-10-11T06:43:06.606Z,29.03
2018-10-11T06:45:35.799Z,29.93
2018-10-11T06:48:06.783Z,28.90
2018-10-11T06:50:35.681Z,28.43
2018-10-11T06:53:04.571Z,31.77
2018-10-11T06:55:32.918Z,33.10
2018-10-11T06:58:01.386Z,28.93
2018-10-11T07:00:29.903Z,27.77
2018-10-11T07:02:58.321Z,26.00
2018-10-11T07:05:26.890Z,25.97
2018-10-11T07:07:55.361Z,26.63
2018-10-11T07:10:23.995Z,25.43
2018-10-11T07:12:52.415Z,25.70
2018-10-11T07:15:20.776Z,26.50
2018-10-11T07:17:49.246Z,26.23
2018-10-11T07:20:17.651Z,26.90
2018-10-11T07:22:46.133Z,26.90
2018-10-11T07:25:15.216Z,30.23
2018-10-11T07:27:43.702Z,30.93
2018-10-11T07:30:12.508Z,29.17
2018-10-11T07:32:40.951Z,28.63
2018-10-11T07:35:10.253Z,25.60
2018-10-11T07:37:38.719Z,59.17
2018-10-11T07:40:09.844Z,28.10
2018-10-11T07:42:38.808Z,27.63
2018-10-11T07:45:08.707Z,26.90
2018-10-11T07:47:37.491Z,26.20
2018-10-11T07:50:06.536Z,24.80
2018-10-11T07:52:35.182Z,25.80
2018-10-11T07:55:08.379Z,25.03
2018-10-11T07:57:36.844Z,26.70
2018-10-11T08:00:05.572Z,25.07
2018-10-11T08:02:33.920Z,24.77
2018-10-11T08:05:02.325Z,26.67
2018-10-11T08:07:30.830Z,23.70
2018-10-11T08:10:03.700Z,24.43
2018-10-11T08:12:32.125Z,25.03
2018-10-11T08:15:00.523Z,23.90
2018-10-11T08:17:29.446Z,24.20
2018-10-11T08:20:01.994Z,23.93
2018-10-11T08:22:30.282Z,24.03
2018-10-11T08:24:59.154Z,24.13
2018-10-11T08:27:27.671Z,21.67
2018-10-11T08:29:56.190Z,23.50
2018-10-11T08:32:24.712Z,22.93
2018-10-11T08:34:53.123Z,25.03
2018-10-11T08:37:21.575Z,23.87
2018-10-11T08:39:50.248Z,22.63
2018-10-11T08:42:18.592Z,23.80
2018-10-11T08:44:48.030Z,21.70
2018-10-11T08:47:16.674Z,21.97
2018-10-11T08:49:45.540Z,21.70
2018-10-11T08:52:14.872Z,21.30
2018-10-11T08:54:47.945Z,22.07
2018-10-11T08:57:16.652Z,22.57
2018-10-11T08:59:46.509Z,21.03
2018-10-11T09:02:15.033Z,22.80
2018-10-11T09:04:43.697Z,23.20
2018-10-11T09:07:12.353Z,23.03
2018-10-11T09:09:40.990Z,25.23
2018-10-11T09:12:09.386Z,21.93
2018-10-11T09:14:38.543Z,24.83
2018-10-11T09:17:06.934Z,24.27
2018-10-11T09:19:35.552Z,24.10
2018-10-11T09:22:03.929Z,24.30
2018-10-11T09:24:32.283Z,22.47
2018-10-11T09:27:00.715Z,23.60
2018-10-11T09:29:29.134Z,22.80
2018-10-11T09:31:57.478Z,26.27
2018-10-11T09:34:25.917Z,23.17
2018-10-11T09:36:54.259Z,23.70
2018-10-11T09:39:22.679Z,24.97
2018-10-11T09:41:51.027Z,21.93
2018-10-11T09:44:19.490Z,24.20
2018-10-11T09:46:49.171Z,24.07
2018-10-11T09:49:17.520Z,25.17
2018-10-11T09:51:46.203Z,26.10
2018-10-11T09:54:14.815Z,27.33
2018-10-11T09:57:18.342Z,25.93
2018-10-11T09:59:46.806Z,25.13
2018-10-11T10:02:15.606Z,24.50
2018-10-11T10:04:46.051Z,25.87
2018-10-11T10:07:14.515Z,25.73
2018-10-11T10:09:43.750Z,24.63
2018-10-11T10:12:12.694Z,25.60
2018-10-11T10:14:41.909Z,24.80
2018-10-11T10:17:10.658Z,25.93
2018-10-11T10:19:39.043Z,25.13
2018-10-11T10:22:07.548Z,25.70
2018-10-11T10:24:36.471Z,24.50
2018-10-11T10:27:04.410Z,25.80
2018-10-11T10:29:32.772Z,29.37
2018-10-11T10:32:01.889Z,27.87
2018-10-11T10:34:30.262Z,26.37
2018-10-11T10:36:58.744Z,24.30
2018-10-11T10:39:27.097Z,25.60
2018-10-11T10:41:55.524Z,25.97
2018-10-11T10:44:23.915Z,24.47
2018-10-11T10:46:52.579Z,26.90
2018-10-11T10:49:21.252Z,27.53
2018-10-11T10:51:49.739Z,25.50
2018-10-11T10:54:22.999Z,26.77
2018-10-11T10:56:52.085Z,26.97
2018-10-11T10:59:20.540Z,24.33
2018-10-11T11:01:48.911Z,26.27
2018-10-11T11:04:17.350Z,25.93
2018-10-11T11:06:45.905Z,24.40
2018-10-11T11:09:14.918Z,23.47
2018-10-11T11:11:43.677Z,26.33
2018-10-11T11:14:13.250Z,24.83
2018-10-11T11:16:42.068Z,26.90
2018-10-11T11:19:11.052Z,26.03
2018-10-11T11:21:39.625Z,25.30
2018-10-11T11:24:08.157Z,26.17
2018-10-11T11:26:36.514Z,26.43
2018-10-11T11:29:04.994Z,25.47
2018-10-11T11:31:33.433Z,28.00
2018-10-11T11:34:02.357Z,24.80
2018-10-11T11:36:31.407Z,23.20
2018-10-11T11:38:59.794Z,24.97
2018-10-11T11:41:28.139Z,23.97
2018-10-11T11:43:56.691Z,22.60
2018-10-11T11:46:25.122Z,23.57
2018-10-11T11:48:53.500Z,25.87
2018-10-11T11:51:21.914Z,24.83
2018-10-11T11:53:50.332Z,22.43
2018-10-11T11:56:19.005Z,25.70
2018-10-11T11:58:47.478Z,21.73
2018-10-11T12:01:15.925Z,24.20
2018-10-11T12:03:44.278Z,23.40
2018-10-11T12:06:12.667Z,22.87
2018-10-11T12:08:41.584Z,25.40
2018-10-11T12:11:09.965Z,23.27
2018-10-11T12:13:38.294Z,26.00
2018-10-11T12:16:06.852Z,22.67
2018-10-11T12:18:35.351Z,22.70
2018-10-11T12:21:03.816Z,24.03
2018-10-11T12:23:32.155Z,22.93
2018-10-11T12:26:00.584Z,24.13
2018-10-11T12:28:29.026Z,25.60
2018-10-11T12:30:57.296Z,23.50
2018-10-11T12:33:25.669Z,23.17
2018-10-11T12:35:54.121Z,22.77
2018-10-11T12:38:22.482Z,23.73
2018-10-11T12:40:50.905Z,23.77
2018-10-11T12:43:19.261Z,20.50
2018-10-11T12:45:47.662Z,22.40
2018-10-11T12:48:16.040Z,21.10
2018-10-11T12:50:44.428Z,22.17
2018-10-11T12:53:12.844Z,22.67
2018-10-11T12:55:41.228Z,22.20
2018-10-11T12:58:09.591Z,22.20
2018-10-11T13:00:37.931Z,21.77
2018-10-11T13:03:06.374Z,20.53
2018-10-11T13:05:34.720Z,22.97
2018-10-11T13:08:03.102Z,20.43
2018-10-11T13:10:31.463Z,21.97
2018-10-11T13:13:01.476Z,21.07
2018-10-11T13:15:28.234Z,21.07
2018-10-11T13:17:56.591Z,19.60
2018-10-11T13:20:25.077Z,20.03
2018-10-11T13:22:53.527Z,19.77
2018-10-11T13:25:21.835Z,20.20
2018-10-11T13:27:50.244Z,21.63
2018-10-11T13:30:18.683Z,20.37
2018-10-11T13:32:47.064Z,20.73
2018-10-11T13:35:15.475Z,22.77
2018-10-11T13:37:43.875Z,18.73
2018-10-11T13:40:12.292Z,20.20
2018-10-11T13:42:40.666Z,21.10
2018-10-11T13:45:09.059Z,21.20
2018-10-11T13:47:42.329Z,18.87
2018-10-11T13:50:06.078Z,18.73
2018-10-11T13:52:34.458Z,19.30
2018-10-11T13:55:09.647Z,20.67
2018-10-11T13:57:31.469Z,19.50
2018-10-11T13:59:59.700Z,19.80
2018-10-11T14:02:28.037Z,19.73
2018-10-11T14:04:56.385Z,20.20
2018-10-11T14:07:25.070Z,21.63
2018-10-11T14:09:53.414Z,18.40
2018-10-11T14:12:21.796Z,19.97
2018-10-11T14:14:50.132Z,19.03
2018-10-11T14:17:18.551Z,20.97
2018-10-11T14:19:46.943Z,19.37
2018-10-11T14:22:15.366Z,20.73
2018-10-11T14:24:43.766Z,19.33
2018-10-11T14:27:12.178Z,18.23
2018-10-11T14:29:40.589Z,19.90
2018-10-11T14:32:08.953Z,17.67
2018-10-11T14:34:37.642Z,18.00
2018-10-11T14:37:06.196Z,17.00
2018-10-11T14:39:34.466Z,18.63
2018-10-11T14:42:02.920Z,19.37
2018-10-11T14:44:31.302Z,18.67
2018-10-11T14:46:59.687Z,17.73
2018-10-11T14:49:28.143Z,16.70
2018-10-11T14:51:56.510Z,17.77
2018-10-11T14:54:24.916Z,18.07
2018-10-11T14:56:53.265Z,17.43
2018-10-11T14:59:21.686Z,16.40
2018-10-11T15:01:50.002Z,16.40
2018-10-11T15:04:18.405Z,15.90
2018-10-11T15:06:46.770Z,16.73
2018-10-11T15:09:15.326Z,15.53
2018-10-11T15:11:43.795Z,15.83
2018-10-11T15:14:12.134Z,16.97
2018-10-11T15:16:40.572Z,16.40
2018-10-11T15:19:08.989Z,16.40
2018-10-11T15:21:37.386Z,15.60
2018-10-11T15:24:06.233Z,16.13
2018-10-11T15:26:34.760Z,15.60
2018-10-11T15:29:03.257Z,17.90
2018-10-11T15:31:31.971Z,15.10
2018-10-11T15:34:00.357Z,15.83
2018-10-11T15:36:28.845Z,15.00
2018-10-11T15:38:57.228Z,20.40
2018-10-11T15:41:25.602Z,15.50
2018-10-11T15:43:54.039Z,16.27
2018-10-11T15:46:22.439Z,15.57
2018-10-11T15:48:50.825Z,15.80
2018-10-11T15:51:19.277Z,16.23
2018-10-11T15:53:47.675Z,21.10
2018-10-11T15:56:16.074Z,15.53
2018-10-11T15:58:44.452Z,15.23
2018-10-11T16:01:12.912Z,16.20
2018-10-11T16:03:41.364Z,15.93
2018-10-11T16:06:09.920Z,16.43
2018-10-11T16:08:38.252Z,18.00
2018-10-11T16:11:06.654Z,14.33
2018-10-11T16:13:35.086Z,20.50
2018-10-11T16:16:03.495Z,17.83
2018-10-11T16:18:31.987Z,15.77
2018-10-11T16:21:00.496Z,19.10
2018-10-11T16:23:29.153Z,16.80
2018-10-11T16:25:57.988Z,18.87
2018-10-11T16:28:26.520Z,15.40
2018-10-11T16:30:55.148Z,16.40
2018-10-11T16:33:23.754Z,17.80
2018-10-11T16:35:52.499Z,17.13
2018-10-11T16:38:20.914Z,16.73
2018-10-11T16:40:49.463Z,19.10
2018-10-11T16:43:18.395Z,17.23
2018-10-11T16:45:47.310Z,17.70
2018-10-11T16:48:16.803Z,17.70
2018-10-11T16:50:45.506Z,16.83
2018-10-11T16:53:14.252Z,19.00
2018-10-11T16:55:42.945Z,16.67
2018-10-11T16:58:12.254Z,17.23
2018-10-11T17:00:41.374Z,16.17
2018-10-11T17:03:10.457Z,19.50
2018-10-11T17:05:39.497Z,17.20
2018-10-11T17:08:08.742Z,22.00
2018-10-11T17:10:38.015Z,15.73
2018-10-11T17:13:07.078Z,19.70
2018-10-11T17:15:36.127Z,20.20
2018-10-11T17:18:04.774Z,17.70
2018-10-11T17:20:33.564Z,23.30
2018-10-11T17:23:02.159Z,18.40
2018-10-11T17:25:31.572Z,19.80
2018-10-11T17:28:00.296Z,16.90
2018-10-11T17:30:28.978Z,18.10
2018-10-11T17:32:57.543Z,18.67
2018-10-11T17:35:26.740Z,20.77
2018-10-11T17:37:55.191Z,20.47
2018-10-11T17:40:23.737Z,19.97
2018-10-11T17:42:52.196Z,18.57
2018-10-11T17:45:20.603Z,17.67
2018-10-11T17:47:50.002Z,19.30
2018-10-11T17:50:19.305Z,17.50
2018-10-11T17:52:48.706Z,20.93
2018-10-11T17:55:18.316Z,18.63
2018-10-11T17:57:47.414Z,19.53
2018-10-11T18:00:16.116Z,19.03
2018-10-11T18:02:44.700Z,19.23
2018-10-11T18:05:13.285Z,18.73
2018-10-11T18:07:42.067Z,19.80
2018-10-11T18:10:10.769Z,19.00
2018-10-11T18:12:39.542Z,18.80
2018-10-11T18:15:08.599Z,18.40
2018-10-11T18:17:37.856Z,19.87
2018-10-11T18:20:06.597Z,21.30
2018-10-11T18:22:35.185Z,21.17
2018-10-11T18:25:03.941Z,22.53
2018-10-11T18:27:36.645Z,20.17
2018-10-11T18:30:05.602Z,21.23
2018-10-11T18:32:34.225Z,21.07
2018-10-11T18:35:02.836Z,24.70
2018-10-11T18:37:32.024Z,20.40
2018-10-11T18:40:00.746Z,21.20
2018-10-11T18:42:29.325Z,23.00
2018-10-11T18:44:57.991Z,23.13
2018-10-11T18:47:26.508Z,26.03
2018-10-11T18:49:55.217Z,23.90
2018-10-11T18:52:23.779Z,22.20
2018-10-11T18:54:52.546Z,23.93
2018-10-11T18:57:21.298Z,22.77
2018-10-11T18:59:49.917Z,25.23
2018-10-11T19:02:18.499Z,25.80
2018-10-11T19:04:47.038Z,22.80
2018-10-11T19:07:15.704Z,23.57
2018-10-11T19:09:44.334Z,24.07
2018-10-11T19:12:12.982Z,23.67
2018-10-11T19:14:41.572Z,25.97
2018-10-11T19:17:10.133Z,23.80
2018-10-11T19:19:38.624Z,22.80
2018-10-11T19:22:07.343Z,21.90
2018-10-11T19:24:36.124Z,22.63
2018-10-11T19:27:04.742Z,32.50
2018-10-11T19:29:33.452Z,25.87
2018-10-11T19:32:02.061Z,24.87
2018-10-11T19:34:30.611Z,24.23
2018-10-11T19:36:59.156Z,26.27
2018-10-11T19:39:27.721Z,24.07
2018-10-11T19:41:56.294Z,24.97
2018-10-11T19:44:24.826Z,23.37
2018-10-11T19:46:53.489Z,25.27
2018-10-11T19:49:22.001Z,24.43
2018-10-11T19:51:50.578Z,24.43
2018-10-11T19:54:19.064Z,24.00
2018-10-11T19:56:47.526Z,28.03
2018-10-11T19:59:16.061Z,25.60
2018-10-11T20:01:44.926Z,23.83
2018-10-11T20:04:13.694Z,26.57
2018-10-11T20:06:42.186Z,26.57
2018-10-11T20:09:10.668Z,26.53
2018-10-11T20:11:39.135Z,24.60
2018-10-11T20:14:07.575Z,24.27
2018-10-11T20:16:36.042Z,24.13
2018-10-11T20:19:04.575Z,26.80
2018-10-11T20:21:33.083Z,24.97
2018-10-11T20:24:01.591Z,24.90
2018-10-11T20:26:30.464Z,25.00
2018-10-11T20:28:59.254Z,25.57
2018-10-11T20:31:27.880Z,25.00
2018-10-11T20:33:56.552Z,24.90
2018-10-11T20:36:25.847Z,28.30
2018-10-11T20:38:54.646Z,26.20
2018-10-11T20:41:23.232Z,26.23
2018-10-11T20:43:51.857Z,25.60
2018-10-11T20:46:20.604Z,28.30
2018-10-11T20:48:49.163Z,25.63
2018-10-11T20:51:17.664Z,28.53
2018-10-11T20:53:46.165Z,26.23
2018-10-11T20:56:14.723Z,28.67
2018-10-11T20:58:43.144Z,26.60
2018-10-11T21:01:11.636Z,28.47
2018-10-11T21:03:40.163Z,25.47
2018-10-11T21:06:08.594Z,25.57
2018-10-11T21:08:37.594Z,26.80
2018-10-11T21:11:06.101Z,25.37
2018-10-11T21:13:34.607Z,24.83
2018-10-11T21:16:03.342Z,24.60
2018-10-11T21:18:31.888Z,25.50
2018-10-11T21:21:00.699Z,25.47
2018-10-11T21:23:29.313Z,23.00
2018-10-11T21:25:57.968Z,25.07
2018-10-11T21:28:26.602Z,24.70
2018-10-11T21:30:55.142Z,24.40
2018-10-11T21:33:23.824Z,26.70
2018-10-11T21:35:52.477Z,24.60
2018-10-11T21:38:21.501Z,27.30
2018-10-11T21:40:49.970Z,26.20
2018-10-11T21:43:19.237Z,26.40
2018-10-11T21:45:47.566Z,25.37
2018-10-11T21:48:16.222Z,25.17
2018-10-11T21:50:44.602Z,27.20
2018-10-11T21:53:13.019Z,24.07
2018-10-11T21:55:41.828Z,28.20
2018-10-11T21:58:10.218Z,24.80
2018-10-11T22:00:44.060Z,24.90
2018-10-11T22:03:12.443Z,27.10
2018-10-11T22:05:41.081Z,28.37
2018-10-11T22:08:09.839Z,25.73
2018-10-11T22:10:38.962Z,27.80
2018-10-11T22:13:07.672Z,25.53
2018-10-11T22:15:36.844Z,26.50
2018-10-11T22:18:05.247Z,27.63
2018-10-11T22:20:33.640Z,26.97
2018-10-11T22:23:02.637Z,27.97
2018-10-11T22:25:31.032Z,25.63
2018-10-11T22:27:59.635Z,27.73
2018-10-11T22:30:28.026Z,26.57
2018-10-11T22:32:56.520Z,28.13
2018-10-11T22:35:25.089Z,28.70
2018-10-11T22:37:59.124Z,28.57
2018-10-11T22:40:27.686Z,28.50
2018-10-11T22:42:56.663Z,28.43
2018-10-11T22:45:25.847Z,29.00
2018-10-11T22:47:54.967Z,25.70
2018-10-11T22:50:24.131Z,30.03
2018-10-11T22:52:52.553Z,27.83
2018-10-11T22:55:20.950Z,27.03
2018-10-11T22:57:49.662Z,28.40
2018-10-11T23:00:18.383Z,27.37
2018-10-11T23:02:47.181Z,28.10
2018-10-11T23:05:15.612Z,28.63
2018-10-11T23:07:44.010Z,28.50
2018-10-11T23:10:12.369Z,27.57
2018-10-11T23:12:40.892Z,30.47
2018-10-11T23:15:09.341Z,29.00
2018-10-11T23:17:38.614Z,27.70
2018-10-11T23:20:07.295Z,26.83
2018-10-11T23:22:35.744Z,31.13
2018-10-11T23:25:04.163Z,29.30
2018-10-11T23:27:32.487Z,27.47
2018-10-11T23:30:00.887Z,26.67
2018-10-11T23:32:29.282Z,30.13
2018-10-11T23:34:57.723Z,29.53
2018-10-11T23:37:26.153Z,28.40
2018-10-11T23:39:54.682Z,28.37
2018-10-11T23:42:23.088Z,26.97
2018-10-11T23:44:52.279Z,28.37
2018-10-11T23:47:21.621Z,31.20
2018-10-11T23:49:49.990Z,29.87
2018-10-11T23:52:18.346Z,28.23
2018-10-11T23:54:47.025Z,28.33
2018-10-11T23:57:15.408Z,30.10
2018-10-11T23:59:43.758Z,31.80
